createdAt,value
2019-04-10T00:01:53.254Z,72.21
2019-04-10T00:04:25.204Z,72.57
2019-04-10T00:07:08.379Z,72.19
2019-04-10T00:09:29.458Z,72.50
2019-04-10T00:12:00.996Z,72.56
2019-04-10T00:14:32.435Z,72.37
2019-04-10T00:17:03.471Z,72.32
2019-04-10T00:19:35.732Z,72.43
2019-04-10T00:22:06.897Z,72.23
2019-04-10T00:24:37.927Z,72.48
2019-04-10T00:27:08.883Z,72.83
2019-04-10T00:29:40.415Z,71.90
2019-04-10T00:32:11.951Z,72.16
2019-04-10T00:34:43.010Z,72.34
2019-04-10T00:37:21.880Z,72.12
2019-04-10T00:39:46.696Z,71.71
2019-04-10T00:42:18.785Z,71.56
2019-04-10T00:44:50.165Z,72.67
2019-04-10T00:47:21.270Z,72.47
2019-04-10T00:49:52.331Z,71.68
2019-04-10T00:52:24.096Z,72.52
2019-04-10T00:54:55.393Z,72.88
2019-04-10T00:57:27.520Z,71.86
2019-04-10T00:59:58.870Z,72.07
2019-04-10T01:02:29.956Z,73.71
2019-04-10T01:05:00.940Z,73.23
2019-04-10T01:07:39.457Z,72.29
2019-04-10T01:10:08.148Z,72.27
2019-04-10T01:12:40.435Z,71.99
2019-04-10T01:15:12.129Z,71.51
2019-04-10T01:17:43.384Z,71.71
2019-04-10T01:20:15.608Z,71.20
2019-04-10T01:22:47.682Z,72.10
2019-04-10T01:25:18.756Z,73.18
2019-04-10T01:27:50.032Z,72.98
2019-04-10T01:30:22.167Z,73.18
2019-04-10T01:32:54.360Z,73.01
2019-04-10T01:35:26.541Z,73.80
2019-04-10T01:38:00.998Z,72.81
2019-04-10T01:40:30.910Z,73.17
2019-04-10T01:43:09.946Z,74.79
2019-04-10T01:45:36.055Z,72.33
2019-04-10T01:48:07.913Z,72.49
2019-04-10T01:50:39.029Z,72.65
2019-04-10T01:53:10.021Z,73.69
2019-04-10T01:55:41.014Z,73.19
2019-04-10T01:58:21.094Z,73.66
2019-04-10T02:01:14.337Z,72.03
2019-04-10T02:03:46.501Z,71.90
2019-04-10T02:06:18.861Z,72.17
2019-04-10T02:08:50.039Z,72.02
2019-04-10T02:11:21.744Z,72.73
2019-04-10T02:13:53.896Z,72.01
2019-04-10T02:16:25.576Z,72.76
2019-04-10T02:18:57.725Z,72.05
2019-04-10T02:21:28.807Z,71.78
2019-04-10T02:24:00.823Z,71.98
2019-04-10T02:26:32.069Z,72.58
2019-04-10T02:29:03.815Z,72.57
2019-04-10T02:31:36.464Z,72.04
2019-04-10T02:34:09.379Z,73.14
2019-04-10T02:36:40.497Z,72.58
2019-04-10T02:39:20.546Z,72.21
2019-04-10T02:41:45.714Z,72.00
2019-04-10T02:44:18.513Z,72.04
2019-04-10T02:46:50.187Z,73.02
2019-04-10T02:49:22.532Z,71.90
2019-04-10T02:51:54.851Z,72.19
2019-04-10T02:54:27.066Z,72.01
2019-04-10T02:56:58.623Z,72.21
2019-04-10T02:59:30.947Z,72.15
2019-04-10T03:02:02.929Z,71.91
2019-04-10T03:04:37.073Z,72.14
2019-04-10T03:07:09.491Z,71.78
2019-04-10T03:09:53.644Z,72.49
2019-04-10T03:12:14.559Z,72.21
2019-04-10T03:14:47.521Z,72.60
2019-04-10T03:17:19.759Z,72.90
2019-04-10T03:19:51.859Z,73.39
2019-04-10T03:22:23.084Z,72.65
2019-04-10T03:24:54.736Z,72.09
2019-04-10T03:27:26.032Z,72.39
2019-04-10T03:29:57.344Z,72.36
2019-04-10T03:32:51.779Z,72.62
2019-04-10T03:35:27.257Z,72.34
2019-04-10T03:37:59.181Z,72.65
2019-04-10T03:40:31.375Z,72.54
2019-04-10T03:43:03.546Z,72.94
2019-04-10T03:45:34.803Z,72.86
2019-04-10T03:48:06.429Z,73.68
2019-04-10T03:50:37.595Z,73.47
2019-04-10T03:53:09.619Z,72.38
2019-04-10T03:55:41.053Z,73.02
2019-04-10T03:58:12.043Z,73.73
2019-04-10T04:00:43.278Z,72.74
2019-04-10T04:03:14.255Z,74.01
2019-04-10T04:05:45.327Z,73.22
2019-04-10T04:08:16.326Z,73.01
2019-04-10T04:10:47.309Z,72.45
2019-04-10T04:13:19.471Z,72.62
2019-04-10T04:15:50.673Z,71.49
2019-04-10T04:18:21.845Z,71.70
2019-04-10T04:20:53.047Z,72.15
2019-04-10T04:23:24.036Z,71.64
2019-04-10T04:25:55.106Z,72.24
2019-04-10T04:28:26.157Z,72.54
2019-04-10T04:30:57.235Z,72.79
2019-04-10T04:33:28.244Z,72.23
2019-04-10T04:35:59.915Z,73.50
2019-04-10T04:38:31.022Z,72.34
2019-04-10T04:41:02.409Z,72.27
2019-04-10T04:43:33.495Z,72.47
2019-04-10T04:46:04.563Z,72.07
2019-04-10T04:48:35.548Z,72.19
2019-04-10T04:51:06.771Z,72.24
2019-04-10T04:53:37.822Z,72.40
2019-04-10T04:56:09.481Z,72.52
2019-04-10T04:58:40.660Z,72.49
2019-04-10T05:01:12.672Z,72.88
2019-04-10T05:03:44.337Z,72.52
2019-04-10T05:06:16.014Z,72.17
2019-04-10T05:08:47.173Z,71.99
2019-04-10T05:11:18.380Z,76.00
2019-04-10T05:13:49.474Z,73.81
2019-04-10T05:16:20.692Z,73.24
2019-04-10T05:18:52.021Z,72.96
2019-04-10T05:21:23.221Z,72.99
2019-04-10T05:23:54.197Z,72.63
2019-04-10T05:26:25.684Z,73.06
2019-04-10T05:28:57.117Z,71.95
2019-04-10T05:31:28.206Z,72.66
2019-04-10T05:33:59.221Z,72.28
2019-04-10T05:36:31.228Z,72.29
2019-04-10T05:39:04.246Z,72.24
2019-04-10T05:41:35.279Z,72.07
2019-04-10T05:44:07.422Z,72.34
2019-04-10T05:46:38.841Z,72.38
2019-04-10T05:49:11.142Z,71.93
2019-04-10T05:51:42.128Z,71.73
2019-04-10T05:54:13.115Z,72.49
2019-04-10T05:56:44.796Z,72.66
2019-04-10T05:59:16.406Z,73.42
2019-04-10T06:01:48.480Z,72.80
2019-04-10T06:04:19.676Z,73.32
2019-04-10T06:06:50.655Z,72.98
2019-04-10T06:09:22.670Z,73.17
2019-04-10T06:11:53.743Z,72.79
2019-04-10T06:14:24.721Z,72.22
2019-04-10T06:16:55.773Z,72.73
2019-04-10T06:19:26.985Z,72.07
2019-04-10T06:21:58.035Z,72.26
2019-04-10T06:24:29.948Z,72.86
2019-04-10T06:27:01.870Z,72.26
2019-04-10T06:29:33.096Z,72.01
2019-04-10T06:32:05.238Z,71.79
2019-04-10T06:34:38.398Z,72.00
2019-04-10T06:37:10.262Z,71.88
2019-04-10T06:39:43.410Z,72.00
2019-04-10T06:42:14.289Z,71.92
2019-04-10T06:44:46.052Z,70.42
2019-04-10T06:47:18.146Z,71.53
2019-04-10T06:49:49.222Z,70.52
2019-04-10T06:52:20.690Z,70.68
2019-04-10T06:54:51.668Z,71.06
2019-04-10T06:57:22.965Z,70.32
2019-04-10T06:59:54.427Z,69.05
2019-04-10T07:02:30.530Z,68.19
2019-04-10T07:05:04.994Z,69.06
2019-04-10T07:07:46.356Z,69.73
2019-04-10T07:10:19.673Z,68.32
2019-04-10T07:12:38.039Z,67.64
2019-04-10T07:15:10.544Z,68.21
2019-04-10T07:17:42.215Z,67.71
2019-04-10T07:20:18.389Z,67.83
2019-04-10T07:22:49.732Z,67.38
2019-04-10T07:25:21.781Z,67.48
2019-04-10T07:27:54.237Z,66.50
2019-04-10T07:30:26.622Z,66.54
2019-04-10T07:32:59.196Z,65.79
2019-04-10T07:35:33.714Z,66.43
2019-04-10T07:38:03.101Z,66.21
2019-04-10T07:40:36.455Z,68.30
2019-04-10T07:43:06.898Z,66.79
2019-04-10T07:45:39.208Z,66.13
2019-04-10T07:48:10.710Z,66.32
2019-04-10T07:50:44.465Z,67.91
2019-04-10T07:53:14.895Z,66.47
2019-04-10T07:55:59.054Z,66.38
2019-04-10T07:58:19.491Z,64.23
2019-04-10T08:00:51.417Z,65.94
2019-04-10T08:03:22.894Z,67.47
2019-04-10T08:05:54.745Z,66.25
2019-04-10T08:08:26.024Z,66.98
2019-04-10T08:10:57.411Z,64.32
2019-04-10T08:13:28.897Z,65.67
2019-04-10T08:16:02.752Z,65.19
2019-04-10T08:18:35.045Z,65.20
2019-04-10T08:21:07.130Z,64.73
2019-04-10T08:23:38.399Z,65.07
2019-04-10T08:26:09.408Z,66.67
2019-04-10T08:28:41.287Z,65.22
2019-04-10T08:31:12.779Z,66.38
2019-04-10T08:33:44.066Z,66.11
2019-04-10T08:36:15.315Z,66.18
2019-04-10T08:38:46.689Z,65.68
2019-04-10T08:41:17.924Z,66.01
2019-04-10T08:43:50.184Z,67.92
2019-04-10T08:46:21.879Z,69.06
2019-04-10T08:48:53.920Z,68.08
2019-04-10T08:51:25.674Z,68.89
2019-04-10T08:53:56.938Z,70.26
2019-04-10T08:56:28.071Z,69.53
2019-04-10T08:59:00.356Z,67.89
2019-04-10T09:01:31.711Z,68.49
2019-04-10T09:04:03.631Z,68.32
2019-04-10T09:06:35.625Z,68.73
2019-04-10T09:09:09.652Z,69.83
2019-04-10T09:11:41.076Z,70.49
2019-04-10T09:14:12.842Z,70.20
2019-04-10T09:16:44.922Z,69.06
2019-04-10T09:19:16.187Z,70.68
2019-04-10T09:21:47.906Z,69.67
2019-04-10T09:24:19.638Z,69.74
2019-04-10T09:26:50.906Z,70.05
2019-04-10T09:29:24.717Z,70.02
2019-04-10T09:31:55.984Z,69.71
2019-04-10T09:34:27.673Z,70.36
2019-04-10T09:36:59.820Z,70.83
2019-04-10T09:39:31.800Z,70.10
2019-04-10T09:42:03.350Z,69.16
2019-04-10T09:44:35.609Z,69.57
2019-04-10T09:47:07.738Z,68.88
2019-04-10T09:49:43.701Z,68.67
2019-04-10T09:52:12.407Z,68.94
2019-04-10T09:54:43.690Z,68.69
2019-04-10T09:57:15.386Z,68.92
2019-04-10T09:59:47.269Z,67.93
2019-04-10T10:02:19.554Z,68.30
2019-04-10T10:04:50.781Z,68.34
2019-04-10T10:07:21.727Z,67.83
2019-04-10T10:09:52.751Z,67.34
2019-04-10T10:12:23.727Z,67.35
2019-04-10T10:14:55.961Z,67.67
2019-04-10T10:17:28.526Z,67.98
2019-04-10T10:19:59.724Z,67.82
2019-04-10T10:22:31.945Z,67.40
2019-04-10T10:25:03.175Z,68.31
2019-04-10T10:27:35.490Z,66.91
2019-04-10T10:30:09.372Z,66.49
2019-04-10T10:32:42.131Z,66.79
2019-04-10T10:35:14.671Z,68.31
2019-04-10T10:37:46.319Z,69.24
2019-04-10T10:40:19.313Z,68.73
2019-04-10T10:42:50.446Z,68.50
2019-04-10T10:45:22.831Z,68.42
2019-04-10T10:47:54.762Z,68.32
2019-04-10T10:50:25.896Z,67.60
2019-04-10T10:52:57.595Z,68.20
2019-04-10T10:55:29.735Z,68.58
2019-04-10T10:58:01.691Z,68.04
2019-04-10T11:00:33.571Z,67.51
2019-04-10T11:03:05.700Z,67.71
2019-04-10T11:05:37.305Z,67.08
2019-04-10T11:08:08.444Z,68.40
2019-04-10T11:10:39.499Z,67.46
2019-04-10T11:13:10.500Z,66.92
2019-04-10T11:15:45.217Z,67.68
2019-04-10T11:18:14.478Z,68.07
2019-04-10T11:20:45.556Z,68.90
2019-04-10T11:23:18.246Z,70.23
2019-04-10T11:25:50.357Z,68.07
2019-04-10T11:28:22.258Z,67.18
2019-04-10T11:30:54.290Z,67.23
2019-04-10T11:33:26.322Z,68.09
2019-04-10T11:36:00.097Z,67.95
2019-04-10T11:38:31.209Z,67.43
2019-04-10T11:41:03.539Z,67.42
2019-04-10T11:43:36.226Z,67.68
2019-04-10T11:46:08.122Z,68.44
2019-04-10T11:48:41.861Z,68.79
2019-04-10T11:51:13.451Z,69.52
2019-04-10T11:53:50.750Z,69.27
2019-04-10T11:56:19.194Z,69.08
2019-04-10T11:58:55.858Z,69.47
2019-04-10T12:01:25.549Z,69.73
2019-04-10T12:03:56.790Z,68.91
2019-04-10T12:06:29.860Z,68.44
2019-04-10T12:09:32.041Z,69.72
2019-04-10T12:11:37.103Z,68.50
2019-04-10T12:14:08.219Z,68.89
2019-04-10T12:16:39.225Z,68.35
2019-04-10T12:19:11.038Z,68.45
2019-04-10T12:21:42.185Z,70.68
2019-04-10T12:24:14.054Z,71.99
2019-04-10T12:26:45.299Z,71.19
2019-04-10T12:29:16.317Z,70.41
2019-04-10T12:31:48.206Z,70.57
2019-04-10T12:34:20.215Z,70.33
2019-04-10T12:36:53.427Z,70.39
2019-04-10T12:39:25.112Z,69.72
2019-04-10T12:41:56.243Z,69.92
2019-04-10T12:44:27.238Z,69.54
2019-04-10T12:46:58.237Z,70.55
2019-04-10T12:49:29.738Z,70.56
2019-04-10T12:52:00.800Z,70.79
2019-04-10T12:54:31.944Z,72.13
2019-04-10T12:57:04.241Z,69.74
2019-04-10T12:59:35.384Z,68.30
2019-04-10T13:02:06.594Z,67.99
2019-04-10T13:04:38.607Z,66.82
2019-04-10T13:07:09.709Z,65.93
2019-04-10T13:09:40.707Z,66.69
2019-04-10T13:12:11.794Z,64.45
2019-04-10T13:14:43.128Z,63.80
2019-04-10T13:17:16.487Z,64.68
2019-04-10T13:19:49.244Z,64.65
2019-04-10T13:22:20.378Z,64.62
2019-04-10T13:24:52.090Z,63.64
2019-04-10T13:27:23.330Z,64.31
2019-04-10T13:29:54.422Z,63.75
2019-04-10T13:32:25.586Z,64.24
2019-04-10T13:34:57.613Z,64.47
2019-04-10T13:37:28.725Z,65.10
2019-04-10T13:39:59.729Z,64.82
2019-04-10T13:42:31.585Z,64.87
2019-04-10T13:45:02.940Z,63.84
2019-04-10T13:47:35.250Z,63.33
2019-04-10T13:50:08.469Z,64.17
2019-04-10T13:52:42.603Z,64.06
2019-04-10T13:55:14.937Z,64.29
2019-04-10T13:57:46.616Z,64.79
2019-04-10T14:00:27.983Z,64.48
2019-04-10T14:02:59.076Z,64.39
2019-04-10T14:05:32.466Z,64.13
2019-04-10T14:08:03.477Z,64.06
2019-04-10T14:10:35.297Z,62.70
2019-04-10T14:13:07.474Z,63.91
2019-04-10T14:15:38.633Z,63.95
2019-04-10T14:18:10.230Z,63.50
2019-04-10T14:20:41.620Z,63.08
2019-04-10T14:23:22.360Z,63.34
2019-04-10T14:26:16.162Z,64.68
2019-04-10T14:28:49.399Z,64.25
2019-04-10T14:31:45.428Z,63.56
2019-04-10T14:34:18.413Z,63.61
2019-04-10T14:36:49.422Z,63.54
2019-04-10T14:39:21.440Z,63.16
2019-04-10T14:41:53.924Z,63.46
2019-04-10T14:44:25.025Z,64.16
2019-04-10T14:46:56.356Z,63.42
2019-04-10T14:49:27.357Z,62.48
2019-04-10T14:51:58.902Z,62.86
2019-04-10T14:54:30.172Z,62.57
2019-04-10T14:57:02.435Z,62.85
2019-04-10T14:59:33.835Z,64.62
2019-04-10T15:02:06.954Z,63.18
2019-04-10T15:04:37.967Z,63.79
2019-04-10T15:07:10.070Z,63.44
2019-04-10T15:10:36.697Z,63.26
2019-04-10T15:13:13.643Z,64.21
2019-04-10T15:15:40.711Z,63.49
2019-04-10T15:18:12.998Z,64.27
2019-04-10T15:20:45.306Z,64.25
2019-04-10T15:23:16.324Z,64.06
2019-04-10T15:25:47.510Z,63.22
2019-04-10T15:28:18.609Z,63.68
2019-04-10T15:30:50.745Z,63.91
2019-04-10T15:33:22.509Z,64.53
2019-04-10T15:35:53.699Z,64.92
2019-04-10T15:38:24.770Z,64.87
2019-04-10T15:40:56.795Z,64.01
2019-04-10T15:43:28.048Z,63.59
2019-04-10T15:46:00.123Z,63.87
2019-04-10T15:48:31.263Z,64.25
2019-04-10T15:51:03.530Z,63.66
2019-04-10T15:53:34.940Z,63.93
2019-04-10T15:56:06.206Z,63.28
2019-04-10T15:58:37.432Z,63.16
2019-04-10T16:01:12.361Z,63.67
2019-04-10T16:03:47.913Z,63.53
2019-04-10T16:06:19.124Z,62.97
2019-04-10T16:08:50.431Z,63.26
2019-04-10T16:11:52.734Z,62.96
2019-04-10T16:14:27.124Z,63.84
2019-04-10T16:17:10.410Z,64.78
2019-04-10T16:20:15.594Z,64.49
2019-04-10T16:23:01.736Z,63.42
2019-04-10T16:25:34.000Z,65.50
2019-04-10T16:28:06.358Z,65.24
2019-04-10T16:30:37.368Z,66.40
2019-04-10T16:33:09.068Z,66.89
2019-04-10T16:35:40.450Z,66.62
2019-04-10T16:38:12.128Z,66.62
2019-04-10T16:40:43.827Z,65.71
2019-04-10T16:43:16.004Z,65.75
2019-04-10T16:45:47.246Z,66.64
2019-04-10T16:48:18.913Z,66.11
2019-04-10T16:50:50.169Z,66.42
2019-04-10T16:53:22.188Z,67.91
2019-04-10T16:55:54.370Z,67.58
2019-04-10T16:58:25.604Z,68.37
2019-04-10T17:00:57.936Z,70.17
2019-04-10T17:03:29.656Z,71.76
2019-04-10T17:06:01.789Z,72.26
2019-04-10T17:08:34.067Z,72.24
2019-04-10T17:11:07.040Z,71.45
2019-04-10T17:13:38.507Z,71.88
2019-04-10T17:16:10.595Z,71.67
2019-04-10T17:18:41.723Z,72.34
2019-04-10T17:21:15.151Z,72.37
2019-04-10T17:23:46.935Z,71.99
2019-04-10T17:26:19.047Z,71.95
2019-04-10T17:28:50.438Z,73.96
2019-04-10T17:31:22.489Z,73.17
2019-04-10T17:33:54.468Z,73.45
2019-04-10T17:36:25.777Z,73.11
2019-04-10T17:38:56.829Z,73.77
2019-04-10T17:41:28.107Z,74.10
2019-04-10T17:44:01.115Z,73.43
2019-04-10T17:46:33.369Z,75.70
2019-04-10T17:49:05.363Z,76.50
2019-04-10T17:51:36.493Z,75.58
2019-04-10T17:54:07.495Z,75.55
2019-04-10T17:56:38.538Z,75.69
2019-04-10T17:59:09.856Z,76.12
2019-04-10T18:01:41.166Z,74.87
2019-04-10T18:04:12.334Z,75.79
2019-04-10T18:06:45.689Z,75.87
2019-04-10T18:09:16.181Z,75.84
2019-04-10T18:11:47.723Z,75.35
2019-04-10T18:14:19.431Z,76.57
2019-04-10T18:16:50.577Z,76.33
2019-04-10T18:19:22.191Z,76.62
2019-04-10T18:21:54.184Z,76.37
2019-04-10T18:24:26.216Z,78.71
2019-04-10T18:26:58.399Z,77.02
2019-04-10T18:29:30.942Z,79.09
2019-04-10T18:32:02.681Z,79.10
2019-04-10T18:34:33.941Z,78.17
2019-04-10T18:37:05.499Z,78.09
2019-04-10T18:39:36.712Z,77.92
2019-04-10T18:42:07.834Z,78.66
2019-04-10T18:44:39.583Z,78.02
2019-04-10T18:47:11.094Z,79.46
2019-04-10T18:49:43.376Z,81.40
2019-04-10T18:52:15.087Z,79.70
2019-04-10T18:54:46.212Z,81.02
2019-04-10T18:57:17.802Z,79.78
2019-04-10T19:00:03.444Z,79.37
2019-04-10T19:02:45.312Z,78.71
2019-04-10T19:05:19.918Z,77.94
2019-04-10T19:07:50.992Z,77.67
2019-04-10T19:10:22.206Z,77.23
2019-04-10T19:12:53.147Z,77.73
2019-04-10T19:15:24.413Z,77.38
2019-04-10T19:17:55.886Z,77.21
2019-04-10T19:20:26.902Z,78.59
2019-04-10T19:22:59.016Z,78.48
2019-04-10T19:25:30.364Z,78.41
2019-04-10T19:28:01.381Z,78.32
2019-04-10T19:31:08.070Z,78.26
2019-04-10T19:33:28.668Z,77.60
2019-04-10T19:35:59.685Z,77.33
2019-04-10T19:38:31.607Z,76.85
2019-04-10T19:41:02.797Z,76.95
2019-04-10T19:43:34.760Z,76.93
2019-04-10T19:46:06.698Z,76.70
2019-04-10T19:48:37.688Z,76.37
2019-04-10T19:51:09.781Z,76.38
2019-04-10T19:53:41.560Z,76.15
2019-04-10T19:56:12.739Z,76.62
2019-04-10T19:58:45.995Z,77.03
2019-04-10T20:01:17.191Z,76.96
2019-04-10T20:03:48.613Z,77.60
2019-04-10T20:06:21.346Z,76.51
2019-04-10T20:08:52.320Z,75.90
2019-04-10T20:11:33.787Z,76.54
2019-04-10T20:13:57.038Z,76.66
2019-04-10T20:16:28.856Z,77.33
2019-04-10T20:19:01.250Z,76.38
2019-04-10T20:21:32.370Z,76.85
2019-04-10T20:24:04.748Z,76.92
2019-04-10T20:26:36.907Z,77.14
2019-04-10T20:29:08.055Z,76.52
2019-04-10T20:31:39.598Z,76.21
2019-04-10T20:34:11.525Z,75.62
2019-04-10T20:36:42.682Z,76.21
2019-04-10T20:39:14.865Z,75.98
2019-04-10T20:41:51.942Z,76.09
2019-04-10T20:44:18.803Z,75.49
2019-04-10T20:46:50.753Z,75.17
2019-04-10T20:49:22.505Z,76.23
2019-04-10T20:51:53.681Z,77.01
2019-04-10T20:54:24.738Z,76.45
2019-04-10T20:56:56.978Z,75.91
2019-04-10T20:59:28.617Z,75.88
2019-04-10T21:01:59.954Z,75.92
2019-04-10T21:04:31.780Z,75.87
2019-04-10T21:07:03.028Z,76.07
2019-04-10T21:09:34.241Z,76.59
2019-04-10T21:12:10.375Z,77.48
2019-04-10T21:14:38.270Z,77.74
2019-04-10T21:17:09.269Z,76.90
2019-04-10T21:19:40.967Z,76.58
2019-04-10T21:22:12.026Z,76.54
2019-04-10T21:24:43.399Z,76.42
2019-04-10T21:27:14.511Z,76.07
2019-04-10T21:29:54.798Z,75.72
2019-04-10T21:32:52.910Z,75.46
2019-04-10T21:35:29.627Z,75.33
2019-04-10T21:38:02.591Z,75.60
2019-04-10T21:40:34.745Z,76.08
2019-04-10T21:43:07.006Z,75.73
2019-04-10T21:45:39.258Z,76.31
2019-04-10T21:48:10.504Z,76.56
2019-04-10T21:50:41.857Z,76.07
2019-04-10T21:53:12.957Z,77.37
2019-04-10T21:55:43.939Z,76.96
2019-04-10T21:58:14.927Z,76.78
2019-04-10T22:01:20.191Z,75.43
2019-04-10T22:03:52.886Z,74.95
2019-04-10T22:06:49.469Z,74.94
2019-04-10T22:09:39.055Z,75.26
2019-04-10T22:12:43.933Z,75.07
2019-04-10T22:15:22.582Z,74.96
2019-04-10T22:17:53.531Z,75.38
2019-04-10T22:20:25.653Z,76.17
2019-04-10T22:22:57.601Z,75.39
2019-04-10T22:25:29.742Z,74.37
2019-04-10T22:28:00.861Z,74.83
2019-04-10T22:30:32.907Z,74.47
2019-04-10T23:15:15.414Z,74.35
2019-04-10T23:17:46.423Z,74.39
2019-04-10T23:20:18.534Z,74.45
2019-04-10T23:22:50.626Z,74.72
2019-04-10T23:25:22.464Z,74.73
2019-04-10T23:27:56.218Z,74.79
2019-04-10T23:30:26.721Z,75.40
2019-04-10T23:32:57.800Z,74.92
2019-04-10T23:35:29.508Z,75.72
2019-04-10T23:38:01.487Z,74.62
2019-04-10T23:40:32.829Z,74.40
2019-04-10T23:43:11.265Z,75.47
2019-04-10T23:45:37.699Z,75.21
2019-04-10T23:48:08.966Z,75.18
2019-04-10T23:50:40.651Z,74.71
2019-04-10T23:53:12.076Z,75.28
2019-04-10T23:55:43.256Z,73.16
2019-04-10T23:58:14.333Z,75.05
